sensor_id;sensor_type;location;lat;lon;timestamp;temperature;humidity
7648;DHT22;3866;48.020;11.720;2024-02-04T00:01:58;5.60;99.90
7648;DHT22;3866;48.020;11.720;2024-02-04T00:04:25;5.60;99.90
7648;DHT22;3866;48.020;11.720;2024-02-04T00:06:52;5.70;99.90
7648;DHT22;3866;48.020;11.720;2024-02-04T00:09:19;5.70;99.90
7648;DHT22;3866;48.020;11.720;2024-02-04T00:11:46;5.60;99.90
7648;DHT22;3866;48.020;11.720;2024-02-04T00:14:13;5.60;99.90
7648;DHT22;3866;48.020;11.720;2024-02-04T00:16:40;5.60;99.90
7648;DHT22;3866;48.020;11.720;2024-02-04T00:19:08;5.50;99.90
7648;DHT22;3866;48.020;11.720;2024-02-04T00:21:36;5.50;99.90
7648;DHT22;3866;48.020;11.720;2024-02-04T00:24:03;5.50;99.90
7648;DHT22;3866;48.020;11.720;2024-02-04T00:26:30;5.50;99.90
7648;DHT22;3866;48.020;11.720;2024-02-04T00:28:59;5.50;99.90
7648;DHT22;3866;48.020;11.720;2024-02-04T00:31:26;5.40;99.90
7648;DHT22;3866;48.020;11.720;2024-02-04T00:33:53;5.40;99.90
7648;DHT22;3866;48.020;11.720;2024-02-04T00:36:21;5.50;99.90
7648;DHT22;3866;48.020;11.720;2024-02-04T00:38:48;5.50;99.90
7648;DHT22;3866;48.020;11.720;2024-02-04T00:41:15;5.50;99.90
7648;DHT22;3866;48.020;11.720;2024-02-04T00:43:41;5.40;99.90
7648;DHT22;3866;48.020;11.720;2024-02-04T00:46:08;5.40;99.90
7648;DHT22;3866;48.020;11.720;2024-02-04T00:48:36;5.40;99.90
7648;DHT22;3866;48.020;11.720;2024-02-04T00:51:03;5.40;99.90
7648;DHT22;3866;48.020;11.720;2024-02-04T00:53:32;5.30;99.90
7648;DHT22;3866;48.020;11.720;2024-02-04T00:56:00;5.40;99.90
7648;DHT22;3866;48.020;11.720;2024-02-04T00:58:27;5.30;99.90
7648;DHT22;3866;48.020;11.720;2024-02-04T01:00:54;5.40;99.90
7648;DHT22;3866;48.020;11.720;2024-02-04T01:03:21;5.30;99.90
7648;DHT22;3866;48.020;11.720;2024-02-04T01:05:48;5.20;99.90
7648;DHT22;3866;48.020;11.720;2024-02-04T01:08:15;5.20;99.90
7648;DHT22;3866;48.020;11.720;2024-02-04T01:10:43;5.30;99.90
7648;DHT22;3866;48.020;11.720;2024-02-04T01:13:10;5.30;99.90
7648;DHT22;3866;48.020;11.720;2024-02-04T01:15:36;5.20;99.90
7648;DHT22;3866;48.020;11.720;2024-02-04T01:18:04;5.30;99.90
7648;DHT22;3866;48.020;11.720;2024-02-04T01:20:31;5.20;99.90
7648;DHT22;3866;48.020;11.720;2024-02-04T01:22:57;5.30;99.90
7648;DHT22;3866;48.020;11.720;2024-02-04T01:25:24;5.30;99.90
7648;DHT22;3866;48.020;11.720;2024-02-04T01:27:52;5.30;99.90
7648;DHT22;3866;48.020;11.720;2024-02-04T01:30:19;5.40;99.90
7648;DHT22;3866;48.020;11.720;2024-02-04T01:32:46;5.40;99.90
7648;DHT22;3866;48.020;11.720;2024-02-04T01:35:13;5.40;99.90
7648;DHT22;3866;48.020;11.720;2024-02-04T01:37:40;5.30;99.90
7648;DHT22;3866;48.020;11.720;2024-02-04T01:40:09;5.30;99.90
7648;DHT22;3866;48.020;11.720;2024-02-04T01:42:36;5.30;99.90
7648;DHT22;3866;48.020;11.720;2024-02-04T01:45:05;5.30;99.90
7648;DHT22;3866;48.020;11.720;2024-02-04T01:47:33;5.30;99.90
7648;DHT22;3866;48.020;11.720;2024-02-04T01:50:00;5.30;99.90
7648;DHT22;3866;48.020;11.720;2024-02-04T01:52:28;5.30;99.90
7648;DHT22;3866;48.020;11.720;2024-02-04T01:54:55;5.30;99.90
7648;DHT22;3866;48.020;11.720;2024-02-04T01:57:23;5.30;99.90
7648;DHT22;3866;48.020;11.720;2024-02-04T01:59:50;5.30;99.90
7648;DHT22;3866;48.020;11.720;2024-02-04T02:02:20;5.20;99.90
7648;DHT22;3866;48.020;11.720;2024-02-04T02:04:47;5.20;99.90
7648;DHT22;3866;48.020;11.720;2024-02-04T02:07:14;5.30;99.90
7648;DHT22;3866;48.020;11.720;2024-02-04T02:09:42;5.40;99.90
7648;DHT22;3866;48.020;11.720;2024-02-04T02:12:11;5.40;99.90
7648;DHT22;3866;48.020;11.720;2024-02-04T02:14:41;5.40;99.90
7648;DHT22;3866;48.020;11.720;2024-02-04T02:17:12;5.40;99.90
7648;DHT22;3866;48.020;11.720;2024-02-04T02:19:48;5.40;99.90
7648;DHT22;3866;48.020;11.720;2024-02-04T02:22:25;5.40;99.90
7648;DHT22;3866;48.020;11.720;2024-02-04T02:24:56;5.50;99.90
7648;DHT22;3866;48.020;11.720;2024-02-04T02:27:24;5.40;99.90
7648;DHT22;3866;48.020;11.720;2024-02-04T02:29:51;5.50;99.90
7648;DHT22;3866;48.020;11.720;2024-02-04T02:32:18;5.50;99.90
7648;DHT22;3866;48.020;11.720;2024-02-04T02:34:46;5.50;99.90
7648;DHT22;3866;48.020;11.720;2024-02-04T02:37:22;5.60;99.90
7648;DHT22;3866;48.020;11.720;2024-02-04T02:39:58;5.50;99.90
7648;DHT22;3866;48.020;11.720;2024-02-04T02:42:26;5.40;99.90
7648;DHT22;3866;48.020;11.720;2024-02-04T02:44:54;5.40;99.90
7648;DHT22;3866;48.020;11.720;2024-02-04T02:47:21;5.40;99.90
7648;DHT22;3866;48.020;11.720;2024-02-04T02:49:51;5.40;99.90
7648;DHT22;3866;48.020;11.720;2024-02-04T02:52:20;5.50;99.90
7648;DHT22;3866;48.020;11.720;2024-02-04T02:54:47;5.50;99.90
7648;DHT22;3866;48.020;11.720;2024-02-04T02:57:15;5.60;99.90
7648;DHT22;3866;48.020;11.720;2024-02-04T02:59:42;5.60;99.90
7648;DHT22;3866;48.020;11.720;2024-02-04T03:02:09;5.60;99.90
7648;DHT22;3866;48.020;11.720;2024-02-04T03:04:36;5.60;99.90
7648;DHT22;3866;48.020;11.720;2024-02-04T03:07:03;5.70;99.90
7648;DHT22;3866;48.020;11.720;2024-02-04T03:09:32;5.70;99.90
7648;DHT22;3866;48.020;11.720;2024-02-04T03:11:58;5.80;99.90
7648;DHT22;3866;48.020;11.720;2024-02-04T03:14:27;5.90;99.90
7648;DHT22;3866;48.020;11.720;2024-02-04T03:16:54;5.80;99.90
7648;DHT22;3866;48.020;11.720;2024-02-04T03:19:20;5.80;99.90
7648;DHT22;3866;48.020;11.720;2024-02-04T03:21:47;5.90;99.90
7648;DHT22;3866;48.020;11.720;2024-02-04T03:24:14;5.90;99.90
7648;DHT22;3866;48.020;11.720;2024-02-04T03:26:41;5.90;99.90
7648;DHT22;3866;48.020;11.720;2024-02-04T03:29:08;5.90;99.90
7648;DHT22;3866;48.020;11.720;2024-02-04T03:31:36;5.90;99.90
7648;DHT22;3866;48.020;11.720;2024-02-04T03:34:03;5.90;99.90
7648;DHT22;3866;48.020;11.720;2024-02-04T03:36:30;6.00;99.90
7648;DHT22;3866;48.020;11.720;2024-02-04T03:38:57;6.00;99.90
7648;DHT22;3866;48.020;11.720;2024-02-04T03:41:24;5.90;99.90
7648;DHT22;3866;48.020;11.720;2024-02-04T03:43:51;5.90;99.90
7648;DHT22;3866;48.020;11.720;2024-02-04T03:46:20;5.90;99.90
7648;DHT22;3866;48.020;11.720;2024-02-04T03:48:48;5.90;99.90
7648;DHT22;3866;48.020;11.720;2024-02-04T03:51:16;6.00;99.90
7648;DHT22;3866;48.020;11.720;2024-02-04T03:53:43;6.00;99.90
7648;DHT22;3866;48.020;11.720;2024-02-04T03:56:10;6.00;99.90
7648;DHT22;3866;48.020;11.720;2024-02-04T03:58:37;6.10;99.90
7648;DHT22;3866;48.020;11.720;2024-02-04T04:01:04;6.00;99.90
7648;DHT22;3866;48.020;11.720;2024-02-04T04:03:31;6.00;99.90
7648;DHT22;3866;48.020;11.720;2024-02-04T04:05:59;6.00;99.90
7648;DHT22;3866;48.020;11.720;2024-02-04T04:08:26;6.00;99.90
7648;DHT22;3866;48.020;11.720;2024-02-04T04:10:53;6.00;99.90
7648;DHT22;3866;48.020;11.720;2024-02-04T04:13:19;6.00;99.90
7648;DHT22;3866;48.020;11.720;2024-02-04T04:15:46;6.00;99.90
7648;DHT22;3866;48.020;11.720;2024-02-04T04:18:13;6.00;99.90
7648;DHT22;3866;48.020;11.720;2024-02-04T04:20:40;6.00;99.90
7648;DHT22;3866;48.020;11.720;2024-02-04T04:23:09;6.10;99.90
7648;DHT22;3866;48.020;11.720;2024-02-04T04:25:35;6.10;99.90
7648;DHT22;3866;48.020;11.720;2024-02-04T04:28:02;6.10;99.90
7648;DHT22;3866;48.020;11.720;2024-02-04T04:30:29;6.20;99.90
7648;DHT22;3866;48.020;11.720;2024-02-04T04:32:57;6.10;99.90
7648;DHT22;3866;48.020;11.720;2024-02-04T04:35:24;6.10;99.90
7648;DHT22;3866;48.020;11.720;2024-02-04T04:37:51;6.10;99.90
7648;DHT22;3866;48.020;11.720;2024-02-04T04:40:20;6.10;99.90
7648;DHT22;3866;48.020;11.720;2024-02-04T04:42:47;6.20;99.90
7648;DHT22;3866;48.020;11.720;2024-02-04T04:45:14;6.20;99.90
7648;DHT22;3866;48.020;11.720;2024-02-04T04:47:41;6.30;99.90
7648;DHT22;3866;48.020;11.720;2024-02-04T04:50:08;6.30;99.90
7648;DHT22;3866;48.020;11.720;2024-02-04T04:52:35;6.30;99.90
7648;DHT22;3866;48.020;11.720;2024-02-04T04:55:02;6.30;99.90
7648;DHT22;3866;48.020;11.720;2024-02-04T04:57:30;6.30;99.90
7648;DHT22;3866;48.020;11.720;2024-02-04T04:59:57;6.40;99.90
7648;DHT22;3866;48.020;11.720;2024-02-04T05:02:29;6.50;99.90
7648;DHT22;3866;48.020;11.720;2024-02-04T05:04:56;6.50;99.90
7648;DHT22;3866;48.020;11.720;2024-02-04T05:07:23;6.60;99.90
7648;DHT22;3866;48.020;11.720;2024-02-04T05:09:50;6.50;99.90
7648;DHT22;3866;48.020;11.720;2024-02-04T05:12:17;6.50;99.90
7648;DHT22;3866;48.020;11.720;2024-02-04T05:14:45;6.50;99.90
7648;DHT22;3866;48.020;11.720;2024-02-04T05:17:12;6.50;99.90
7648;DHT22;3866;48.020;11.720;2024-02-04T05:19:41;6.50;99.90
7648;DHT22;3866;48.020;11.720;2024-02-04T05:22:07;6.50;99.90
7648;DHT22;3866;48.020;11.720;2024-02-04T05:24:34;6.50;99.90
7648;DHT22;3866;48.020;11.720;2024-02-04T05:27:01;6.50;99.90
7648;DHT22;3866;48.020;11.720;2024-02-04T05:29:28;6.50;99.90
7648;DHT22;3866;48.020;11.720;2024-02-04T05:31:56;6.50;99.90
7648;DHT22;3866;48.020;11.720;2024-02-04T05:34:23;6.50;99.90
7648;DHT22;3866;48.020;11.720;2024-02-04T05:36:50;6.50;99.90
7648;DHT22;3866;48.020;11.720;2024-02-04T05:39:16;6.50;99.90
7648;DHT22;3866;48.020;11.720;2024-02-04T05:41:44;6.50;99.90
7648;DHT22;3866;48.020;11.720;2024-02-04T05:44:10;6.50;99.90
7648;DHT22;3866;48.020;11.720;2024-02-04T05:46:38;6.40;99.90
7648;DHT22;3866;48.020;11.720;2024-02-04T05:49:06;6.30;99.90
7648;DHT22;3866;48.020;11.720;2024-02-04T05:51:37;6.30;99.90
7648;DHT22;3866;48.020;11.720;2024-02-04T05:54:04;6.30;99.90
7648;DHT22;3866;48.020;11.720;2024-02-04T05:56:31;6.30;99.90
7648;DHT22;3866;48.020;11.720;2024-02-04T05:58:58;6.30;99.90
7648;DHT22;3866;48.020;11.720;2024-02-04T06:01:25;6.30;99.90
7648;DHT22;3866;48.020;11.720;2024-02-04T06:03:52;6.30;99.90
7648;DHT22;3866;48.020;11.720;2024-02-04T06:06:20;6.30;99.90
7648;DHT22;3866;48.020;11.720;2024-02-04T06:08:47;6.30;99.90
7648;DHT22;3866;48.020;11.720;2024-02-04T06:11:15;6.40;99.90
7648;DHT22;3866;48.020;11.720;2024-02-04T06:13:43;6.40;99.90
7648;DHT22;3866;48.020;11.720;2024-02-04T06:16:11;6.40;99.90
7648;DHT22;3866;48.020;11.720;2024-02-04T06:18:38;6.30;99.90
7648;DHT22;3866;48.020;11.720;2024-02-04T06:21:05;6.30;99.90
7648;DHT22;3866;48.020;11.720;2024-02-04T06:23:34;6.30;99.90
7648;DHT22;3866;48.020;11.720;2024-02-04T06:26:01;6.20;99.90
7648;DHT22;3866;48.020;11.720;2024-02-04T06:28:28;6.20;99.90
7648;DHT22;3866;48.020;11.720;2024-02-04T06:30:55;6.20;99.90
7648;DHT22;3866;48.020;11.720;2024-02-04T06:33:22;6.10;99.90
7648;DHT22;3866;48.020;11.720;2024-02-04T06:35:51;6.10;99.90
7648;DHT22;3866;48.020;11.720;2024-02-04T06:38:18;6.10;99.90
7648;DHT22;3866;48.020;11.720;2024-02-04T06:40:46;6.10;99.90
7648;DHT22;3866;48.020;11.720;2024-02-04T06:43:13;6.10;99.90
7648;DHT22;3866;48.020;11.720;2024-02-04T06:45:40;6.00;99.90
7648;DHT22;3866;48.020;11.720;2024-02-04T06:48:07;6.10;99.90
7648;DHT22;3866;48.020;11.720;2024-02-04T06:50:35;6.00;99.90
7648;DHT22;3866;48.020;11.720;2024-02-04T06:53:02;6.00;99.90
7648;DHT22;3866;48.020;11.720;2024-02-04T06:55:29;6.00;99.90
7648;DHT22;3866;48.020;11.720;2024-02-04T06:57:57;6.00;99.90
7648;DHT22;3866;48.020;11.720;2024-02-04T07:00:24;6.00;99.90
7648;DHT22;3866;48.020;11.720;2024-02-04T07:02:51;6.00;99.90
7648;DHT22;3866;48.020;11.720;2024-02-04T07:05:18;6.00;99.90
7648;DHT22;3866;48.020;11.720;2024-02-04T07:07:47;5.90;99.90
7648;DHT22;3866;48.020;11.720;2024-02-04T07:10:14;6.00;99.90
7648;DHT22;3866;48.020;11.720;2024-02-04T07:12:41;6.00;99.90
7648;DHT22;3866;48.020;11.720;2024-02-04T07:15:09;6.00;99.90
7648;DHT22;3866;48.020;11.720;2024-02-04T07:17:36;6.00;99.90
7648;DHT22;3866;48.020;11.720;2024-02-04T07:20:04;6.00;99.90
7648;DHT22;3866;48.020;11.720;2024-02-04T07:22:31;6.00;99.90
7648;DHT22;3866;48.020;11.720;2024-02-04T07:24:58;6.00;99.90
7648;DHT22;3866;48.020;11.720;2024-02-04T07:27:25;6.00;99.90
7648;DHT22;3866;48.020;11.720;2024-02-04T07:29:52;6.00;99.90
7648;DHT22;3866;48.020;11.720;2024-02-04T07:32:21;6.00;99.90
7648;DHT22;3866;48.020;11.720;2024-02-04T07:34:49;6.00;99.90
7648;DHT22;3866;48.020;11.720;2024-02-04T07:37:16;6.00;99.90
7648;DHT22;3866;48.020;11.720;2024-02-04T07:39:44;6.10;99.90
7648;DHT22;3866;48.020;11.720;2024-02-04T07:42:11;6.20;99.90
7648;DHT22;3866;48.020;11.720;2024-02-04T07:44:37;6.20;99.90
7648;DHT22;3866;48.020;11.720;2024-02-04T07:47:04;6.30;99.90
7648;DHT22;3866;48.020;11.720;2024-02-04T07:49:32;6.30;99.90
7648;DHT22;3866;48.020;11.720;2024-02-04T07:51:59;6.40;99.90
7648;DHT22;3866;48.020;11.720;2024-02-04T07:54:26;6.50;99.90
7648;DHT22;3866;48.020;11.720;2024-02-04T07:56:53;6.50;99.90
7648;DHT22;3866;48.020;11.720;2024-02-04T07:59:20;6.70;99.90
7648;DHT22;3866;48.020;11.720;2024-02-04T08:01:47;6.80;99.90
7648;DHT22;3866;48.020;11.720;2024-02-04T08:04:14;6.90;99.90
7648;DHT22;3866;48.020;11.720;2024-02-04T08:06:42;6.90;99.90
7648;DHT22;3866;48.020;11.720;2024-02-04T08:09:09;7.40;99.90
7648;DHT22;3866;48.020;11.720;2024-02-04T08:11:37;8.00;99.90
7648;DHT22;3866;48.020;11.720;2024-02-04T08:14:04;8.00;99.90
7648;DHT22;3866;48.020;11.720;2024-02-04T08:16:31;8.20;99.90
7648;DHT22;3866;48.020;11.720;2024-02-04T08:18:57;8.20;99.90
7648;DHT22;3866;48.020;11.720;2024-02-04T08:21:24;8.10;99.90
7648;DHT22;3866;48.020;11.720;2024-02-04T08:23:53;8.00;99.90
7648;DHT22;3866;48.020;11.720;2024-02-04T08:26:20;8.10;99.90
7648;DHT22;3866;48.020;11.720;2024-02-04T08:28:47;8.20;99.90
7648;DHT22;3866;48.020;11.720;2024-02-04T08:31:13;8.20;99.90
7648;DHT22;3866;48.020;11.720;2024-02-04T08:33:40;8.10;99.90
7648;DHT22;3866;48.020;11.720;2024-02-04T08:36:07;8.00;99.90
7648;DHT22;3866;48.020;11.720;2024-02-04T08:38:36;8.00;99.90
7648;DHT22;3866;48.020;11.720;2024-02-04T08:41:04;8.20;99.90
7648;DHT22;3866;48.020;11.720;2024-02-04T08:43:31;8.20;99.90
7648;DHT22;3866;48.020;11.720;2024-02-04T08:45:58;8.30;99.90
7648;DHT22;3866;48.020;11.720;2024-02-04T08:48:25;8.50;99.90
7648;DHT22;3866;48.020;11.720;2024-02-04T08:50:52;8.60;99.90
7648;DHT22;3866;48.020;11.720;2024-02-04T08:53:20;8.50;99.90
7648;DHT22;3866;48.020;11.720;2024-02-04T08:55:47;8.70;99.90
7648;DHT22;3866;48.020;11.720;2024-02-04T08:58:15;8.70;99.90
7648;DHT22;3866;48.020;11.720;2024-02-04T09:00:42;8.80;99.90
7648;DHT22;3866;48.020;11.720;2024-02-04T09:03:09;8.70;99.90
7648;DHT22;3866;48.020;11.720;2024-02-04T09:05:36;8.90;99.90
7648;DHT22;3866;48.020;11.720;2024-02-04T09:08:03;9.10;99.90
7648;DHT22;3866;48.020;11.720;2024-02-04T09:10:30;9.30;99.90
7648;DHT22;3866;48.020;11.720;2024-02-04T09:12:57;9.30;99.90
7648;DHT22;3866;48.020;11.720;2024-02-04T09:15:26;9.70;99.90
7648;DHT22;3866;48.020;11.720;2024-02-04T09:17:52;10.00;99.90
7648;DHT22;3866;48.020;11.720;2024-02-04T09:20:19;10.10;99.90
7648;DHT22;3866;48.020;11.720;2024-02-04T09:22:46;10.40;99.90
7648;DHT22;3866;48.020;11.720;2024-02-04T09:25:13;10.60;99.90
7648;DHT22;3866;48.020;11.720;2024-02-04T09:27:40;10.70;99.90
7648;DHT22;3866;48.020;11.720;2024-02-04T09:30:07;10.40;99.90
7648;DHT22;3866;48.020;11.720;2024-02-04T09:32:36;10.40;99.90
7648;DHT22;3866;48.020;11.720;2024-02-04T09:35:03;10.50;99.90
7648;DHT22;3866;48.020;11.720;2024-02-04T09:37:31;10.20;99.90
7648;DHT22;3866;48.020;11.720;2024-02-04T09:39:57;10.30;99.90
7648;DHT22;3866;48.020;11.720;2024-02-04T09:42:24;10.60;99.90
7648;DHT22;3866;48.020;11.720;2024-02-04T09:44:53;10.90;99.90
7648;DHT22;3866;48.020;11.720;2024-02-04T09:47:21;11.00;99.90
7648;DHT22;3866;48.020;11.720;2024-02-04T09:49:49;11.00;99.90
7648;DHT22;3866;48.020;11.720;2024-02-04T09:52:18;11.00;99.90
7648;DHT22;3866;48.020;11.720;2024-02-04T09:54:50;10.80;99.90
7648;DHT22;3866;48.020;11.720;2024-02-04T09:57:17;10.90;99.90
7648;DHT22;3866;48.020;11.720;2024-02-04T09:59:44;10.40;99.90
7648;DHT22;3866;48.020;11.720;2024-02-04T10:02:13;10.60;99.90
7648;DHT22;3866;48.020;11.720;2024-02-04T10:04:40;10.70;99.90
7648;DHT22;3866;48.020;11.720;2024-02-04T10:07:08;11.00;99.90
7648;DHT22;3866;48.020;11.720;2024-02-04T10:09:35;11.10;99.90
7648;DHT22;3866;48.020;11.720;2024-02-04T10:12:02;11.20;99.90
7648;DHT22;3866;48.020;11.720;2024-02-04T10:14:30;11.10;99.90
7648;DHT22;3866;48.020;11.720;2024-02-04T10:16:57;11.30;99.90
7648;DHT22;3866;48.020;11.720;2024-02-04T10:19:24;11.30;99.90
7648;DHT22;3866;48.020;11.720;2024-02-04T10:21:58;11.40;99.90
7648;DHT22;3866;48.020;11.720;2024-02-04T10:24:27;11.20;99.90
7648;DHT22;3866;48.020;11.720;2024-02-04T10:26:54;10.90;99.90
7648;DHT22;3866;48.020;11.720;2024-02-04T10:29:21;11.00;99.90
7648;DHT22;3866;48.020;11.720;2024-02-04T10:31:48;11.20;99.90
7648;DHT22;3866;48.020;11.720;2024-02-04T10:34:16;11.20;99.90
7648;DHT22;3866;48.020;11.720;2024-02-04T10:36:42;11.00;99.90
7648;DHT22;3866;48.020;11.720;2024-02-04T10:39:10;11.20;99.90
7648;DHT22;3866;48.020;11.720;2024-02-04T10:41:44;11.00;99.90
7648;DHT22;3866;48.020;11.720;2024-02-04T10:44:16;11.00;99.90
7648;DHT22;3866;48.020;11.720;2024-02-04T10:46:44;11.00;99.90
7648;DHT22;3866;48.020;11.720;2024-02-04T10:49:14;11.00;99.90
7648;DHT22;3866;48.020;11.720;2024-02-04T10:51:42;10.90;99.90
7648;DHT22;3866;48.020;11.720;2024-02-04T10:54:10;11.00;99.90
7648;DHT22;3866;48.020;11.720;2024-02-04T10:56:42;11.10;99.90
7648;DHT22;3866;48.020;11.720;2024-02-04T10:59:10;11.20;99.90
7648;DHT22;3866;48.020;11.720;2024-02-04T11:01:39;11.40;99.90
7648;DHT22;3866;48.020;11.720;2024-02-04T11:04:09;11.80;99.90
7648;DHT22;3866;48.020;11.720;2024-02-04T11:06:38;11.60;99.90
7648;DHT22;3866;48.020;11.720;2024-02-04T11:09:05;11.90;99.90
7648;DHT22;3866;48.020;11.720;2024-02-04T11:11:34;11.90;99.90
7648;DHT22;3866;48.020;11.720;2024-02-04T11:14:05;11.80;99.90
7648;DHT22;3866;48.020;11.720;2024-02-04T11:16:55;12.00;99.90
7648;DHT22;3866;48.020;11.720;2024-02-04T11:19:35;12.30;99.90
7648;DHT22;3866;48.020;11.720;2024-02-04T11:22:20;11.90;99.90
7648;DHT22;3866;48.020;11.720;2024-02-04T11:25:09;12.30;99.90
7648;DHT22;3866;48.020;11.720;2024-02-04T11:27:41;12.10;99.90
7648;DHT22;3866;48.020;11.720;2024-02-04T11:30:09;12.40;99.90
7648;DHT22;3866;48.020;11.720;2024-02-04T11:32:36;12.30;99.90
7648;DHT22;3866;48.020;11.720;2024-02-04T11:35:04;12.50;99.90
7648;DHT22;3866;48.020;11.720;2024-02-04T11:37:33;12.20;99.90
7648;DHT22;3866;48.020;11.720;2024-02-04T11:40:00;12.50;99.90
7648;DHT22;3866;48.020;11.720;2024-02-04T11:42:31;12.70;99.90
7648;DHT22;3866;48.020;11.720;2024-02-04T11:45:07;12.90;99.90
7648;DHT22;3866;48.020;11.720;2024-02-04T11:47:37;13.30;99.90
7648;DHT22;3866;48.020;11.720;2024-02-04T11:50:04;13.00;99.90
7648;DHT22;3866;48.020;11.720;2024-02-04T11:52:31;13.10;99.90
7648;DHT22;3866;48.020;11.720;2024-02-04T11:54:59;13.10;99.90
7648;DHT22;3866;48.020;11.720;2024-02-04T11:57:26;13.00;99.90
7648;DHT22;3866;48.020;11.720;2024-02-04T11:59:54;12.90;99.90
7648;DHT22;3866;48.020;11.720;2024-02-04T12:02:21;12.70;99.90
7648;DHT22;3866;48.020;11.720;2024-02-04T12:04:49;12.60;99.90
7648;DHT22;3866;48.020;11.720;2024-02-04T12:07:17;12.60;99.90
7648;DHT22;3866;48.020;11.720;2024-02-04T12:09:45;12.20;99.90
7648;DHT22;3866;48.020;11.720;2024-02-04T12:12:12;12.20;99.90
7648;DHT22;3866;48.020;11.720;2024-02-04T12:14:39;12.20;99.90
7648;DHT22;3866;48.020;11.720;2024-02-04T12:17:07;12.10;99.90
7648;DHT22;3866;48.020;11.720;2024-02-04T12:19:35;12.00;99.90
7648;DHT22;3866;48.020;11.720;2024-02-04T12:22:04;11.80;99.90
7648;DHT22;3866;48.020;11.720;2024-02-04T12:24:35;11.80;99.90
7648;DHT22;3866;48.020;11.720;2024-02-04T12:27:02;11.80;99.90
7648;DHT22;3866;48.020;11.720;2024-02-04T12:29:29;11.80;99.90
7648;DHT22;3866;48.020;11.720;2024-02-04T12:31:59;12.00;99.90
7648;DHT22;3866;48.020;11.720;2024-02-04T12:34:26;12.10;99.90
7648;DHT22;3866;48.020;11.720;2024-02-04T12:37:00;12.20;99.90
7648;DHT22;3866;48.020;11.720;2024-02-04T12:39:29;12.40;99.90
7648;DHT22;3866;48.020;11.720;2024-02-04T12:41:58;12.10;99.90
7648;DHT22;3866;48.020;11.720;2024-02-04T12:44:25;12.00;99.90
7648;DHT22;3866;48.020;11.720;2024-02-04T12:46:52;11.70;99.90
7648;DHT22;3866;48.020;11.720;2024-02-04T12:49:20;11.50;99.90
7648;DHT22;3866;48.020;11.720;2024-02-04T12:51:48;11.40;99.90
7648;DHT22;3866;48.020;11.720;2024-02-04T12:54:17;11.20;99.90
7648;DHT22;3866;48.020;11.720;2024-02-04T12:56:47;11.30;99.90
7648;DHT22;3866;48.020;11.720;2024-02-04T12:59:24;11.30;99.90
7648;DHT22;3866;48.020;11.720;2024-02-04T13:01:53;11.30;99.90
7648;DHT22;3866;48.020;11.720;2024-02-04T13:04:21;11.40;99.90
7648;DHT22;3866;48.020;11.720;2024-02-04T13:06:48;11.40;99.90
7648;DHT22;3866;48.020;11.720;2024-02-04T13:09:15;11.40;99.90
7648;DHT22;3866;48.020;11.720;2024-02-04T13:11:42;11.30;99.90
7648;DHT22;3866;48.020;11.720;2024-02-04T13:14:11;11.30;99.90
7648;DHT22;3866;48.020;11.720;2024-02-04T13:16:38;11.30;99.90
7648;DHT22;3866;48.020;11.720;2024-02-04T13:19:05;11.20;99.90
7648;DHT22;3866;48.020;11.720;2024-02-04T13:21:33;11.40;99.90
7648;DHT22;3866;48.020;11.720;2024-02-04T13:24:00;11.40;99.90
7648;DHT22;3866;48.020;11.720;2024-02-04T13:26:27;11.50;99.90
7648;DHT22;3866;48.020;11.720;2024-02-04T13:28:54;11.50;99.90
7648;DHT22;3866;48.020;11.720;2024-02-04T13:31:22;11.40;99.90
7648;DHT22;3866;48.020;11.720;2024-02-04T13:33:49;11.50;99.90
7648;DHT22;3866;48.020;11.720;2024-02-04T13:36:16;11.40;99.90
7648;DHT22;3866;48.020;11.720;2024-02-04T13:38:42;11.40;99.90
7648;DHT22;3866;48.020;11.720;2024-02-04T13:41:09;11.50;99.90
7648;DHT22;3866;48.020;11.720;2024-02-04T13:43:36;11.60;99.90
7648;DHT22;3866;48.020;11.720;2024-02-04T13:46:03;11.60;99.90
7648;DHT22;3866;48.020;11.720;2024-02-04T13:48:32;11.70;99.90
7648;DHT22;3866;48.020;11.720;2024-02-04T13:50:59;11.80;99.90
7648;DHT22;3866;48.020;11.720;2024-02-04T13:53:25;11.90;99.90
7648;DHT22;3866;48.020;11.720;2024-02-04T13:55:52;11.90;99.90
7648;DHT22;3866;48.020;11.720;2024-02-04T13:58:20;11.80;99.90
7648;DHT22;3866;48.020;11.720;2024-02-04T14:00:48;11.90;99.90
7648;DHT22;3866;48.020;11.720;2024-02-04T14:03:15;11.90;99.90
7648;DHT22;3866;48.020;11.720;2024-02-04T14:05:43;11.80;99.90
7648;DHT22;3866;48.020;11.720;2024-02-04T14:08:10;11.90;99.90
7648;DHT22;3866;48.020;11.720;2024-02-04T14:10:37;11.90;99.90
7648;DHT22;3866;48.020;11.720;2024-02-04T14:13:04;11.80;99.90
7648;DHT22;3866;48.020;11.720;2024-02-04T14:15:31;11.80;99.90
7648;DHT22;3866;48.020;11.720;2024-02-04T14:18:02;11.70;99.90
7648;DHT22;3866;48.020;11.720;2024-02-04T14:20:30;11.70;99.90
7648;DHT22;3866;48.020;11.720;2024-02-04T14:22:58;11.70;99.90
7648;DHT22;3866;48.020;11.720;2024-02-04T14:25:25;11.70;99.90
7648;DHT22;3866;48.020;11.720;2024-02-04T14:27:52;11.70;99.90
7648;DHT22;3866;48.020;11.720;2024-02-04T14:30:19;11.50;99.90
7648;DHT22;3866;48.020;11.720;2024-02-04T14:32:46;11.50;99.90
7648;DHT22;3866;48.020;11.720;2024-02-04T14:35:13;11.50;99.90
7648;DHT22;3866;48.020;11.720;2024-02-04T14:37:41;11.50;99.90
7648;DHT22;3866;48.020;11.720;2024-02-04T14:40:10;11.50;99.90
7648;DHT22;3866;48.020;11.720;2024-02-04T14:42:38;11.50;99.90
7648;DHT22;3866;48.020;11.720;2024-02-04T14:45:06;11.50;99.90
7648;DHT22;3866;48.020;11.720;2024-02-04T14:47:33;11.50;99.90
7648;DHT22;3866;48.020;11.720;2024-02-04T14:50:00;11.60;99.90
7648;DHT22;3866;48.020;11.720;2024-02-04T14:52:28;11.50;99.90
7648;DHT22;3866;48.020;11.720;2024-02-04T14:54:54;11.40;99.90
7648;DHT22;3866;48.020;11.720;2024-02-04T14:57:23;11.50;99.90
7648;DHT22;3866;48.020;11.720;2024-02-04T14:59:50;11.40;99.90
7648;DHT22;3866;48.020;11.720;2024-02-04T15:02:16;11.40;99.90
7648;DHT22;3866;48.020;11.720;2024-02-04T15:04:43;11.40;99.90
7648;DHT22;3866;48.020;11.720;2024-02-04T15:07:10;11.50;99.90
7648;DHT22;3866;48.020;11.720;2024-02-04T15:09:37;11.50;99.90
7648;DHT22;3866;48.020;11.720;2024-02-04T15:12:05;11.50;99.90
7648;DHT22;3866;48.020;11.720;2024-02-04T15:14:34;11.40;99.90
7648;DHT22;3866;48.020;11.720;2024-02-04T15:17:01;11.40;99.90
7648;DHT22;3866;48.020;11.720;2024-02-04T15:19:28;11.30;99.90
7648;DHT22;3866;48.020;11.720;2024-02-04T15:21:56;11.40;99.90
7648;DHT22;3866;48.020;11.720;2024-02-04T15:24:23;11.30;99.90
7648;DHT22;3866;48.020;11.720;2024-02-04T15:26:52;11.30;99.90
7648;DHT22;3866;48.020;11.720;2024-02-04T15:29:20;11.30;99.90
7648;DHT22;3866;48.020;11.720;2024-02-04T15:31:49;11.30;99.90
7648;DHT22;3866;48.020;11.720;2024-02-04T15:34:16;11.30;99.90
7648;DHT22;3866;48.020;11.720;2024-02-04T15:36:43;11.20;99.90
7648;DHT22;3866;48.020;11.720;2024-02-04T15:39:10;11.20;99.90
7648;DHT22;3866;48.020;11.720;2024-02-04T15:41:37;11.20;99.90
7648;DHT22;3866;48.020;11.720;2024-02-04T15:44:05;11.20;99.90
7648;DHT22;3866;48.020;11.720;2024-02-04T15:46:32;11.20;99.90
7648;DHT22;3866;48.020;11.720;2024-02-04T15:49:02;11.20;99.90
7648;DHT22;3866;48.020;11.720;2024-02-04T15:51:35;11.20;99.90
7648;DHT22;3866;48.020;11.720;2024-02-04T15:54:03;11.20;99.90
7648;DHT22;3866;48.020;11.720;2024-02-04T15:56:33;11.10;99.90
7648;DHT22;3866;48.020;11.720;2024-02-04T15:59:06;11.20;99.90